sensor_id;sensor_type;location;lat;lon;timestamp;pressure;altitude;pressure_sealevel;temperature;humidity
44457;BME280;30159;49.316;8.558;2023-03-14T00:02:13;98624.41;;;11.65;100.00
44457;BME280;30159;49.316;8.558;2023-03-14T00:04:39;98635.81;;;11.71;100.00
44457;BME280;30159;49.316;8.558;2023-03-14T00:07:06;98646.69;;;11.83;100.00
44457;BME280;30159;49.316;8.558;2023-03-14T00:09:32;98654.31;;;11.81;100.00
44457;BME280;30159;49.316;8.558;2023-03-14T00:12:00;98636.81;;;11.87;100.00
44457;BME280;30159;49.316;8.558;2023-03-14T00:14:28;98642.88;;;11.84;100.00
44457;BME280;30159;49.316;8.558;2023-03-14T00:16:55;98627.50;;;11.76;100.00
44457;BME280;30159;49.316;8.558;2023-03-14T00:19:21;98644.59;;;11.89;100.00
44457;BME280;30159;49.316;8.558;2023-03-14T00:21:48;98646.81;;;11.87;100.00
44457;BME280;30159;49.316;8.558;2023-03-14T00:24:14;98635.19;;;11.86;100.00
44457;BME280;30159;49.316;8.558;2023-03-14T00:26:41;98617.38;;;11.73;100.00
44457;BME280;30159;49.316;8.558;2023-03-14T00:29:09;98633.91;;;11.92;100.00
44457;BME280;30159;49.316;8.558;2023-03-14T00:31:35;98623.31;;;11.87;100.00
44457;BME280;30159;49.316;8.558;2023-03-14T00:34:02;98628.06;;;11.90;100.00
44457;BME280;30159;49.316;8.558;2023-03-14T00:36:29;98623.56;;;11.94;100.00
44457;BME280;30159;49.316;8.558;2023-03-14T00:38:55;98623.91;;;11.93;100.00
44457;BME280;30159;49.316;8.558;2023-03-14T00:41:22;98588.47;;;11.52;100.00
44457;BME280;30159;49.316;8.558;2023-03-14T00:43:49;98511.13;;;11.14;100.00
44457;BME280;30159;49.316;8.558;2023-03-14T00:46:17;98620.63;;;11.87;100.00
44457;BME280;30159;49.316;8.558;2023-03-14T00:48:44;98631.69;;;11.94;100.00
44457;BME280;30159;49.316;8.558;2023-03-14T00:51:12;98626.13;;;11.91;100.00
44457;BME280;30159;49.316;8.558;2023-03-14T00:53:40;98617.91;;;11.87;100.00
44457;BME280;30159;49.316;8.558;2023-03-14T00:56:09;98629.78;;;11.86;100.00
44457;BME280;30159;49.316;8.558;2023-03-14T00:58:36;98493.72;;;10.91;100.00
44457;BME280;30159;49.316;8.558;2023-03-14T01:01:06;98603.16;;;11.64;100.00
44457;BME280;30159;49.316;8.558;2023-03-14T01:03:34;98637.75;;;11.91;100.00
44457;BME280;30159;49.316;8.558;2023-03-14T01:06:12;98648.34;;;11.96;100.00
44457;BME280;30159;49.316;8.558;2023-03-14T01:08:39;98649.59;;;11.99;100.00
44457;BME280;30159;49.316;8.558;2023-03-14T01:11:07;98654.53;;;11.97;100.00
44457;BME280;30159;49.316;8.558;2023-03-14T01:13:34;98640.09;;;11.93;100.00
44457;BME280;30159;49.316;8.558;2023-03-14T01:16:02;98639.31;;;11.92;100.00
44457;BME280;30159;49.316;8.558;2023-03-14T01:18:30;98634.31;;;11.82;100.00
44457;BME280;30159;49.316;8.558;2023-03-14T01:20:58;98636.16;;;11.90;100.00
44457;BME280;30159;49.316;8.558;2023-03-14T01:23:25;98626.66;;;11.84;100.00
44457;BME280;30159;49.316;8.558;2023-03-14T01:25:52;98617.69;;;11.71;100.00
44457;BME280;30159;49.316;8.558;2023-03-14T01:28:18;98625.75;;;11.80;100.00
44457;BME280;30159;49.316;8.558;2023-03-14T01:30:45;98625.59;;;11.76;100.00
44457;BME280;30159;49.316;8.558;2023-03-14T01:33:11;98609.38;;;11.76;100.00
44457;BME280;30159;49.316;8.558;2023-03-14T01:35:40;98606.91;;;11.71;100.00
44457;BME280;30159;49.316;8.558;2023-03-14T01:38:07;98604.19;;;11.71;100.00
44457;BME280;30159;49.316;8.558;2023-03-14T01:40:41;98596.56;;;11.73;100.00
44457;BME280;30159;49.316;8.558;2023-03-14T01:43:14;98596.09;;;11.71;100.00
44457;BME280;30159;49.316;8.558;2023-03-14T01:46:12;98585.03;;;11.64;100.00
44457;BME280;30159;49.316;8.558;2023-03-14T01:48:46;98586.09;;;11.51;100.00
44457;BME280;30159;49.316;8.558;2023-03-14T01:51:16;98572.00;;;11.45;100.00
44457;BME280;30159;49.316;8.558;2023-03-14T01:53:46;98574.38;;;11.47;100.00
44457;BME280;30159;49.316;8.558;2023-03-14T01:56:16;98552.13;;;11.50;100.00
44457;BME280;30159;49.316;8.558;2023-03-14T01:58:45;98545.94;;;11.49;100.00
44457;BME280;30159;49.316;8.558;2023-03-14T02:01:16;98552.00;;;11.46;100.00
44457;BME280;30159;49.316;8.558;2023-03-14T02:03:47;98529.47;;;11.42;100.00
44457;BME280;30159;49.316;8.558;2023-03-14T02:06:19;98533.63;;;11.39;100.00
44457;BME280;30159;49.316;8.558;2023-03-14T02:08:50;98526.34;;;11.40;100.00
44457;BME280;30159;49.316;8.558;2023-03-14T02:11:16;98536.31;;;11.39;100.00
44457;BME280;30159;49.316;8.558;2023-03-14T02:13:44;98522.66;;;11.24;100.00
44457;BME280;30159;49.316;8.558;2023-03-14T02:16:11;98522.81;;;11.39;100.00
44457;BME280;30159;49.316;8.558;2023-03-14T02:18:37;98531.16;;;11.47;100.00
44457;BME280;30159;49.316;8.558;2023-03-14T02:21:10;98521.81;;;11.44;100.00
44457;BME280;30159;49.316;8.558;2023-03-14T02:23:44;98540.53;;;11.49;100.00
44457;BME280;30159;49.316;8.558;2023-03-14T02:26:16;98469.28;;;11.08;100.00
44457;BME280;30159;49.316;8.558;2023-03-14T02:28:48;98522.63;;;11.45;100.00
44457;BME280;30159;49.316;8.558;2023-03-14T02:31:16;98515.97;;;11.42;100.00
44457;BME280;30159;49.316;8.558;2023-03-14T02:33:43;98526.50;;;11.35;100.00
44457;BME280;30159;49.316;8.558;2023-03-14T02:36:12;98495.66;;;11.24;100.00
44457;BME280;30159;49.316;8.558;2023-03-14T02:38:43;98458.28;;;10.92;100.00
44457;BME280;30159;49.316;8.558;2023-03-14T02:41:10;98506.47;;;11.24;100.00
44457;BME280;30159;49.316;8.558;2023-03-14T02:43:37;98496.53;;;11.15;100.00
44457;BME280;30159;49.316;8.558;2023-03-14T02:46:05;98487.38;;;11.08;100.00
44457;BME280;30159;49.316;8.558;2023-03-14T02:48:35;98500.53;;;11.09;100.00
44457;BME280;30159;49.316;8.558;2023-03-14T02:51:03;98469.59;;;10.86;100.00
44457;BME280;30159;49.316;8.558;2023-03-14T02:53:32;98498.97;;;11.08;100.00
44457;BME280;30159;49.316;8.558;2023-03-14T02:56:00;98487.13;;;11.01;100.00
44457;BME280;30159;49.316;8.558;2023-03-14T02:58:26;98466.84;;;10.94;100.00
44457;BME280;30159;49.316;8.558;2023-03-14T03:00:53;98486.47;;;11.04;100.00
44457;BME280;30159;49.316;8.558;2023-03-14T03:03:21;98472.50;;;11.02;100.00
44457;BME280;30159;49.316;8.558;2023-03-14T03:05:49;98503.44;;;11.04;100.00
44457;BME280;30159;49.316;8.558;2023-03-14T03:08:16;98478.41;;;10.95;100.00
44457;BME280;30159;49.316;8.558;2023-03-14T03:10:43;98475.25;;;10.93;100.00
44457;BME280;30159;49.316;8.558;2023-03-14T03:13:10;98469.81;;;11.02;100.00
44457;BME280;30159;49.316;8.558;2023-03-14T03:15:36;98465.19;;;11.02;100.00
44457;BME280;30159;49.316;8.558;2023-03-14T03:18:03;98460.94;;;11.01;100.00
44457;BME280;30159;49.316;8.558;2023-03-14T03:20:31;98461.38;;;11.03;100.00
44457;BME280;30159;49.316;8.558;2023-03-14T03:22:58;98346.66;;;10.30;100.00
44457;BME280;30159;49.316;8.558;2023-03-14T03:25:24;98449.47;;;11.04;100.00
44457;BME280;30159;49.316;8.558;2023-03-14T03:27:51;98451.97;;;11.09;100.00
44457;BME280;30159;49.316;8.558;2023-03-14T03:30:18;98446.13;;;11.07;100.00
44457;BME280;30159;49.316;8.558;2023-03-14T03:32:44;98426.97;;;11.00;100.00
44457;BME280;30159;49.316;8.558;2023-03-14T03:35:11;98423.03;;;10.97;100.00
44457;BME280;30159;49.316;8.558;2023-03-14T03:37:40;98419.88;;;10.95;100.00
44457;BME280;30159;49.316;8.558;2023-03-14T03:40:08;98392.53;;;10.85;100.00
44457;BME280;30159;49.316;8.558;2023-03-14T03:42:35;98422.28;;;11.09;100.00
44457;BME280;30159;49.316;8.558;2023-03-14T03:45:02;98415.66;;;11.07;100.00
44457;BME280;30159;49.316;8.558;2023-03-14T03:47:30;98419.00;;;11.04;100.00
44457;BME280;30159;49.316;8.558;2023-03-14T03:49:56;98419.34;;;11.02;100.00
44457;BME280;30159;49.316;8.558;2023-03-14T03:52:23;98387.50;;;10.74;100.00
44457;BME280;30159;49.316;8.558;2023-03-14T03:54:51;98405.13;;;10.93;100.00
44457;BME280;30159;49.316;8.558;2023-03-14T03:57:17;98388.69;;;10.86;100.00
44457;BME280;30159;49.316;8.558;2023-03-14T03:59:44;98402.91;;;10.95;100.00
44457;BME280;30159;49.316;8.558;2023-03-14T04:02:10;98410.78;;;11.00;100.00
44457;BME280;30159;49.316;8.558;2023-03-14T04:04:37;98399.56;;;10.98;100.00
44457;BME280;30159;49.316;8.558;2023-03-14T04:07:04;98404.94;;;10.98;100.00
44457;BME280;30159;49.316;8.558;2023-03-14T04:09:31;98402.25;;;10.98;100.00
44457;BME280;30159;49.316;8.558;2023-03-14T04:11:59;98404.28;;;11.01;100.00
44457;BME280;30159;49.316;8.558;2023-03-14T04:14:25;98402.13;;;10.94;100.00
44457;BME280;30159;49.316;8.558;2023-03-14T04:16:52;98390.94;;;10.84;100.00
44457;BME280;30159;49.316;8.558;2023-03-14T04:19:19;98399.75;;;10.93;100.00
44457;BME280;30159;49.316;8.558;2023-03-14T04:21:46;98409.63;;;10.89;100.00
44457;BME280;30159;49.316;8.558;2023-03-14T04:24:13;98406.47;;;10.87;100.00
44457;BME280;30159;49.316;8.558;2023-03-14T04:26:39;98408.28;;;10.95;100.00
44457;BME280;30159;49.316;8.558;2023-03-14T04:29:07;98384.47;;;10.97;100.00
44457;BME280;30159;49.316;8.558;2023-03-14T04:31:34;98367.47;;;10.84;100.00
44457;BME280;30159;49.316;8.558;2023-03-14T04:34:00;98391.47;;;10.98;100.00
44457;BME280;30159;49.316;8.558;2023-03-14T04:36:27;98361.47;;;10.79;100.00
44457;BME280;30159;49.316;8.558;2023-03-14T04:38:53;98377.13;;;10.85;100.00
44457;BME280;30159;49.316;8.558;2023-03-14T04:41:20;98374.75;;;10.84;100.00
44457;BME280;30159;49.316;8.558;2023-03-14T04:43:46;98369.81;;;10.86;100.00
44457;BME280;30159;49.316;8.558;2023-03-14T04:46:14;98255.03;;;10.09;100.00
44457;BME280;30159;49.316;8.558;2023-03-14T04:48:41;98354.97;;;10.80;100.00
44457;BME280;30159;49.316;8.558;2023-03-14T04:51:07;98365.31;;;10.78;100.00
44457;BME280;30159;49.316;8.558;2023-03-14T04:53:34;98344.13;;;10.67;100.00
44457;BME280;30159;49.316;8.558;2023-03-14T04:56:02;98334.41;;;10.54;100.00
44457;BME280;30159;49.316;8.558;2023-03-14T04:58:28;98363.91;;;10.71;100.00
44457;BME280;30159;49.316;8.558;2023-03-14T05:00:55;98357.53;;;10.76;100.00
44457;BME280;30159;49.316;8.558;2023-03-14T05:03:23;98356.34;;;10.86;100.00
44457;BME280;30159;49.316;8.558;2023-03-14T05:05:50;98359.09;;;10.98;100.00
44457;BME280;30159;49.316;8.558;2023-03-14T05:08:16;98251.34;;;10.35;100.00
44457;BME280;30159;49.316;8.558;2023-03-14T05:10:43;98354.41;;;11.07;100.00
44457;BME280;30159;49.316;8.558;2023-03-14T05:13:09;98356.53;;;11.14;100.00
44457;BME280;30159;49.316;8.558;2023-03-14T05:15:36;98357.88;;;11.08;100.00
44457;BME280;30159;49.316;8.558;2023-03-14T05:18:02;98372.41;;;11.15;100.00
44457;BME280;30159;49.316;8.558;2023-03-14T05:20:31;98355.19;;;11.08;100.00
44457;BME280;30159;49.316;8.558;2023-03-14T05:22:57;98378.50;;;11.25;100.00
44457;BME280;30159;49.316;8.558;2023-03-14T05:25:24;98367.00;;;11.15;100.00
44457;BME280;30159;49.316;8.558;2023-03-14T05:27:53;98363.44;;;11.24;100.00
44457;BME280;30159;49.316;8.558;2023-03-14T05:30:19;98368.63;;;11.29;100.00
44457;BME280;30159;49.316;8.558;2023-03-14T05:32:46;98367.72;;;11.25;100.00
44457;BME280;30159;49.316;8.558;2023-03-14T05:35:13;98355.13;;;11.29;100.00
44457;BME280;30159;49.316;8.558;2023-03-14T05:37:41;98357.47;;;11.30;100.00
44457;BME280;30159;49.316;8.558;2023-03-14T05:40:08;98367.03;;;11.28;100.00
44457;BME280;30159;49.316;8.558;2023-03-14T05:42:35;98327.44;;;11.07;100.00
44457;BME280;30159;49.316;8.558;2023-03-14T05:45:02;98356.22;;;11.28;100.00
44457;BME280;30159;49.316;8.558;2023-03-14T05:47:29;98349.72;;;11.29;100.00
44457;BME280;30159;49.316;8.558;2023-03-14T05:49:55;98341.63;;;11.29;100.00
44457;BME280;30159;49.316;8.558;2023-03-14T05:52:22;98354.69;;;11.39;100.00
44457;BME280;30159;49.316;8.558;2023-03-14T05:54:49;98344.56;;;11.48;100.00
44457;BME280;30159;49.316;8.558;2023-03-14T05:57:16;98332.78;;;11.41;100.00
44457;BME280;30159;49.316;8.558;2023-03-14T05:59:42;98323.06;;;11.39;100.00
44457;BME280;30159;49.316;8.558;2023-03-14T06:02:09;98334.69;;;11.52;100.00
44457;BME280;30159;49.316;8.558;2023-03-14T06:04:36;98280.28;;;11.05;100.00
44457;BME280;30159;49.316;8.558;2023-03-14T06:07:02;98339.63;;;11.38;100.00
44457;BME280;30159;49.316;8.558;2023-03-14T06:09:29;98339.19;;;11.48;100.00
44457;BME280;30159;49.316;8.558;2023-03-14T06:11:56;98347.03;;;11.41;100.00
44457;BME280;30159;49.316;8.558;2023-03-14T06:14:23;98345.91;;;11.42;100.00
44457;BME280;30159;49.316;8.558;2023-03-14T06:16:50;98351.44;;;11.46;100.00
44457;BME280;30159;49.316;8.558;2023-03-14T06:19:17;98353.81;;;11.59;100.00
44457;BME280;30159;49.316;8.558;2023-03-14T06:21:44;98353.25;;;11.66;100.00
44457;BME280;30159;49.316;8.558;2023-03-14T06:24:11;98351.47;;;11.70;100.00
44457;BME280;30159;49.316;8.558;2023-03-14T06:26:37;98335.81;;;11.64;100.00
44457;BME280;30159;49.316;8.558;2023-03-14T06:29:05;98348.88;;;11.62;100.00
44457;BME280;30159;49.316;8.558;2023-03-14T06:31:32;98345.94;;;11.67;100.00
44457;BME280;30159;49.316;8.558;2023-03-14T06:33:58;98351.13;;;11.72;100.00
44457;BME280;30159;49.316;8.558;2023-03-14T06:36:25;98350.88;;;11.65;100.00
44457;BME280;30159;49.316;8.558;2023-03-14T06:38:52;98352.03;;;11.64;100.00
44457;BME280;30159;49.316;8.558;2023-03-14T06:41:18;98339.31;;;11.64;100.00
44457;BME280;30159;49.316;8.558;2023-03-14T06:43:45;98357.97;;;11.81;100.00
44457;BME280;30159;49.316;8.558;2023-03-14T06:46:13;98358.09;;;11.85;100.00
44457;BME280;30159;49.316;8.558;2023-03-14T06:48:40;98363.63;;;11.89;100.00
44457;BME280;30159;49.316;8.558;2023-03-14T06:51:07;98357.66;;;11.95;100.00
44457;BME280;30159;49.316;8.558;2023-03-14T06:53:33;98351.59;;;12.11;100.00
44457;BME280;30159;49.316;8.558;2023-03-14T06:56:00;98344.38;;;12.02;100.00
44457;BME280;30159;49.316;8.558;2023-03-14T06:58:26;98344.34;;;12.27;100.00
44457;BME280;30159;49.316;8.558;2023-03-14T07:00:54;98228.94;;;11.50;100.00
44457;BME280;30159;49.316;8.558;2023-03-14T07:03:23;98339.06;;;12.18;100.00
44457;BME280;30159;49.316;8.558;2023-03-14T07:05:49;98336.03;;;12.20;100.00
44457;BME280;30159;49.316;8.558;2023-03-14T07:08:16;98160.16;;;10.95;100.00
44457;BME280;30159;49.316;8.558;2023-03-14T07:10:43;98329.63;;;12.12;100.00
44457;BME280;30159;49.316;8.558;2023-03-14T07:13:09;98339.84;;;12.19;100.00
44457;BME280;30159;49.316;8.558;2023-03-14T07:15:36;98348.97;;;12.14;100.00
44457;BME280;30159;49.316;8.558;2023-03-14T07:18:03;98298.78;;;11.76;100.00
44457;BME280;30159;49.316;8.558;2023-03-14T07:20:31;98353.81;;;12.21;100.00
44457;BME280;30159;49.316;8.558;2023-03-14T07:22:57;98326.94;;;12.00;100.00
44457;BME280;30159;49.316;8.558;2023-03-14T07:25:25;98361.13;;;12.20;100.00
44457;BME280;30159;49.316;8.558;2023-03-14T07:27:52;98336.06;;;12.08;100.00
44457;BME280;30159;49.316;8.558;2023-03-14T07:30:19;98364.72;;;12.37;100.00
44457;BME280;30159;49.316;8.558;2023-03-14T07:32:45;98351.78;;;12.30;100.00
44457;BME280;30159;49.316;8.558;2023-03-14T07:35:12;98355.81;;;12.36;100.00
44457;BME280;30159;49.316;8.558;2023-03-14T07:37:40;98358.41;;;12.45;100.00
44457;BME280;30159;49.316;8.558;2023-03-14T07:40:07;98357.09;;;12.67;99.98
44457;BME280;30159;49.316;8.558;2023-03-14T07:42:35;98297.22;;;12.12;99.67
44457;BME280;30159;49.316;8.558;2023-03-14T07:45:02;98360.69;;;12.71;99.27
44457;BME280;30159;49.316;8.558;2023-03-14T07:47:29;98360.25;;;12.69;97.63
44457;BME280;30159;49.316;8.558;2023-03-14T07:49:55;98358.88;;;12.75;98.64
44457;BME280;30159;49.316;8.558;2023-03-14T07:52:22;98368.94;;;12.91;99.14
44457;BME280;30159;49.316;8.558;2023-03-14T07:54:51;98354.50;;;12.99;97.83
44457;BME280;30159;49.316;8.558;2023-03-14T07:57:17;98359.38;;;13.09;97.31
44457;BME280;30159;49.316;8.558;2023-03-14T07:59:44;98367.44;;;13.21;98.46
44457;BME280;30159;49.316;8.558;2023-03-14T08:02:10;98335.66;;;13.18;98.97
44457;BME280;30159;49.316;8.558;2023-03-14T08:04:37;98365.75;;;13.61;97.73
44457;BME280;30159;49.316;8.558;2023-03-14T08:07:04;98360.69;;;13.91;96.37
44457;BME280;30159;49.316;8.558;2023-03-14T08:09:30;98366.72;;;13.84;93.76
44457;BME280;30159;49.316;8.558;2023-03-14T08:11:58;98368.47;;;13.93;94.42
44457;BME280;30159;49.316;8.558;2023-03-14T08:14:25;98368.97;;;13.98;92.05
44457;BME280;30159;49.316;8.558;2023-03-14T08:16:52;98373.91;;;14.28;90.53
44457;BME280;30159;49.316;8.558;2023-03-14T08:19:18;98365.00;;;14.27;89.07
44457;BME280;30159;49.316;8.558;2023-03-14T08:21:46;98363.31;;;14.03;89.98
44457;BME280;30159;49.316;8.558;2023-03-14T08:24:12;98360.16;;;14.01;91.15
44457;BME280;30159;49.316;8.558;2023-03-14T08:26:39;98370.75;;;14.26;89.18
44457;BME280;30159;49.316;8.558;2023-03-14T08:29:07;98350.81;;;14.34;88.72
44457;BME280;30159;49.316;8.558;2023-03-14T08:31:33;98361.41;;;14.23;88.79
44457;BME280;30159;49.316;8.558;2023-03-14T08:34:00;98356.81;;;14.08;88.88
44457;BME280;30159;49.316;8.558;2023-03-14T08:36:27;98365.19;;;14.19;89.31
44457;BME280;30159;49.316;8.558;2023-03-14T08:38:54;98351.66;;;14.38;88.25
44457;BME280;30159;49.316;8.558;2023-03-14T08:41:20;98347.66;;;14.32;88.16
44457;BME280;30159;49.316;8.558;2023-03-14T08:43:47;98353.72;;;14.25;89.30
44457;BME280;30159;49.316;8.558;2023-03-14T08:46:15;98356.91;;;14.31;89.49
44457;BME280;30159;49.316;8.558;2023-03-14T08:48:41;98360.22;;;14.05;89.72
44457;BME280;30159;49.316;8.558;2023-03-14T08:51:11;98356.13;;;13.95;91.38
44457;BME280;30159;49.316;8.558;2023-03-14T08:53:39;98362.06;;;14.01;91.44
44457;BME280;30159;49.316;8.558;2023-03-14T08:56:06;98355.06;;;14.16;92.13
44457;BME280;30159;49.316;8.558;2023-03-14T08:58:35;98374.47;;;14.18;91.04
44457;BME280;30159;49.316;8.558;2023-03-14T09:01:03;98372.94;;;14.36;93.64
44457;BME280;30159;49.316;8.558;2023-03-14T09:03:31;98380.84;;;14.61;91.58
44457;BME280;30159;49.316;8.558;2023-03-14T09:06:01;98376.16;;;14.42;90.59
44457;BME280;30159;49.316;8.558;2023-03-14T09:08:29;98372.03;;;14.48;91.26
44457;BME280;30159;49.316;8.558;2023-03-14T09:10:55;98368.22;;;14.17;92.69
44457;BME280;30159;49.316;8.558;2023-03-14T09:13:22;98394.06;;;14.11;93.95
44457;BME280;30159;49.316;8.558;2023-03-14T09:15:50;98394.84;;;14.11;95.08
44457;BME280;30159;49.316;8.558;2023-03-14T09:18:17;98362.00;;;13.65;95.25
44457;BME280;30159;49.316;8.558;2023-03-14T09:20:45;98409.78;;;14.05;96.90
44457;BME280;30159;49.316;8.558;2023-03-14T09:23:11;98407.56;;;13.76;98.68
44457;BME280;30159;49.316;8.558;2023-03-14T09:25:38;98404.84;;;13.76;100.00
44457;BME280;30159;49.316;8.558;2023-03-14T09:28:04;98406.84;;;14.10;99.23
44457;BME280;30159;49.316;8.558;2023-03-14T09:30:31;98411.63;;;14.17;97.03
44457;BME280;30159;49.316;8.558;2023-03-14T09:32:58;98299.53;;;13.58;96.94
44457;BME280;30159;49.316;8.558;2023-03-14T09:35:25;98412.56;;;14.41;96.82
44457;BME280;30159;49.316;8.558;2023-03-14T09:37:53;98406.13;;;14.49;94.77
44457;BME280;30159;49.316;8.558;2023-03-14T09:40:20;98414.13;;;14.77;93.56
44457;BME280;30159;49.316;8.558;2023-03-14T09:42:50;98421.63;;;14.64;92.27
44457;BME280;30159;49.316;8.558;2023-03-14T09:45:24;98417.44;;;14.35;93.37
44457;BME280;30159;49.316;8.558;2023-03-14T09:47:52;98389.19;;;13.85;95.08
44457;BME280;30159;49.316;8.558;2023-03-14T09:50:19;98412.72;;;13.97;94.20
44457;BME280;30159;49.316;8.558;2023-03-14T09:52:48;98416.63;;;13.67;95.74
44457;BME280;30159;49.316;8.558;2023-03-14T09:55:19;98411.91;;;13.64;98.69
44457;BME280;30159;49.316;8.558;2023-03-14T09:57:48;98390.81;;;13.42;98.05
44457;BME280;30159;49.316;8.558;2023-03-14T10:00:18;98404.06;;;13.59;98.63
44457;BME280;30159;49.316;8.558;2023-03-14T10:02:50;98424.41;;;13.69;98.35
44457;BME280;30159;49.316;8.558;2023-03-14T10:05:20;98429.47;;;13.55;98.32
44457;BME280;30159;49.316;8.558;2023-03-14T10:07:47;98426.41;;;13.56;99.03
44457;BME280;30159;49.316;8.558;2023-03-14T10:10:18;98423.00;;;13.59;99.81
44457;BME280;30159;49.316;8.558;2023-03-14T10:12:46;98301.03;;;12.80;99.99
44457;BME280;30159;49.316;8.558;2023-03-14T10:15:14;98421.22;;;13.35;100.00
44457;BME280;30159;49.316;8.558;2023-03-14T10:17:46;98409.34;;;13.40;100.00
44457;BME280;30159;49.316;8.558;2023-03-14T10:20:32;98413.91;;;13.36;100.00
44457;BME280;30159;49.316;8.558;2023-03-14T10:23:00;98414.97;;;13.63;100.00
44457;BME280;30159;49.316;8.558;2023-03-14T10:25:29;98418.03;;;13.93;100.00
44457;BME280;30159;49.316;8.558;2023-03-14T10:27:56;98375.38;;;13.90;100.00
44457;BME280;30159;49.316;8.558;2023-03-14T10:30:44;98405.97;;;13.90;100.00
44457;BME280;30159;49.316;8.558;2023-03-14T10:33:18;98410.00;;;13.81;100.00
44457;BME280;30159;49.316;8.558;2023-03-14T10:35:47;98415.72;;;13.32;100.00
44457;BME280;30159;49.316;8.558;2023-03-14T10:38:18;98415.31;;;13.17;100.00
44457;BME280;30159;49.316;8.558;2023-03-14T10:40:49;98431.06;;;13.27;100.00
44457;BME280;30159;49.316;8.558;2023-03-14T10:43:19;98416.88;;;13.18;100.00
44457;BME280;30159;49.316;8.558;2023-03-14T10:45:52;98427.44;;;13.23;100.00
44457;BME280;30159;49.316;8.558;2023-03-14T10:48:25;98415.38;;;13.21;100.00
44457;BME280;30159;49.316;8.558;2023-03-14T10:50:57;98424.91;;;13.15;100.00
44457;BME280;30159;49.316;8.558;2023-03-14T10:53:24;98424.97;;;12.90;100.00
44457;BME280;30159;49.316;8.558;2023-03-14T10:55:52;98420.72;;;12.89;100.00
44457;BME280;30159;49.316;8.558;2023-03-14T10:58:22;98405.00;;;12.95;100.00
44457;BME280;30159;49.316;8.558;2023-03-14T11:00:54;98423.75;;;12.88;100.00
44457;BME280;30159;49.316;8.558;2023-03-14T11:03:24;98433.31;;;12.57;100.00
44457;BME280;30159;49.316;8.558;2023-03-14T11:05:56;98431.19;;;12.38;100.00
44457;BME280;30159;49.316;8.558;2023-03-14T11:08:25;98424.41;;;12.44;100.00
44457;BME280;30159;49.316;8.558;2023-03-14T11:11:01;98438.28;;;12.30;100.00
44457;BME280;30159;49.316;8.558;2023-03-14T11:13:33;98439.66;;;12.24;100.00
44457;BME280;30159;49.316;8.558;2023-03-14T11:16:08;98449.97;;;12.10;100.00
44457;BME280;30159;49.316;8.558;2023-03-14T11:19:03;98445.22;;;11.82;100.00
44457;BME280;30159;49.316;8.558;2023-03-14T11:21:41;98459.00;;;11.89;100.00
44457;BME280;30159;49.316;8.558;2023-03-14T11:24:26;98448.03;;;11.86;100.00
44457;BME280;30159;49.316;8.558;2023-03-14T11:26:59;98450.88;;;11.89;100.00
44457;BME280;30159;49.316;8.558;2023-03-14T11:29:36;98451.91;;;11.97;100.00
44457;BME280;30159;49.316;8.558;2023-03-14T11:32:12;98464.41;;;12.01;100.00
44457;BME280;30159;49.316;8.558;2023-03-14T11:34:44;98469.59;;;12.07;100.00
44457;BME280;30159;49.316;8.558;2023-03-14T11:37:17;98475.44;;;12.09;100.00
44457;BME280;30159;49.316;8.558;2023-03-14T11:39:54;98479.16;;;12.04;100.00
44457;BME280;30159;49.316;8.558;2023-03-14T11:42:24;98486.94;;;12.06;100.00
44457;BME280;30159;49.316;8.558;2023-03-14T11:44:54;98506.06;;;12.13;100.00
44457;BME280;30159;49.316;8.558;2023-03-14T11:47:25;98517.91;;;12.08;100.00
44457;BME280;30159;49.316;8.558;2023-03-14T11:49:57;98523.16;;;11.92;100.00
44457;BME280;30159;49.316;8.558;2023-03-14T11:52:29;98539.09;;;11.85;100.00
44457;BME280;30159;49.316;8.558;2023-03-14T11:55:00;98523.81;;;11.89;100.00
44457;BME280;30159;49.316;8.558;2023-03-14T11:57:30;98557.97;;;11.73;100.00
44457;BME280;30159;49.316;8.558;2023-03-14T11:59:58;98569.09;;;11.71;100.00
44457;BME280;30159;49.316;8.558;2023-03-14T12:02:33;98570.03;;;11.54;100.00
44457;BME280;30159;49.316;8.558;2023-03-14T12:08:21;98596.63;;;11.65;100.00
44457;BME280;30159;49.316;8.558;2023-03-14T12:10:54;98607.09;;;11.66;100.00
44457;BME280;30159;49.316;8.558;2023-03-14T12:13:28;98602.03;;;11.44;100.00
44457;BME280;30159;49.316;8.558;2023-03-14T12:15:57;98638.19;;;11.72;100.00
44457;BME280;30159;49.316;8.558;2023-03-14T12:18:27;98638.31;;;11.76;100.00
44457;BME280;30159;49.316;8.558;2023-03-14T12:20:56;98640.25;;;11.54;100.00
44457;BME280;30159;49.316;8.558;2023-03-14T12:23:25;98660.75;;;11.47;100.00
44457;BME280;30159;49.316;8.558;2023-03-14T12:26:07;98677.22;;;11.33;100.00
44457;BME280;30159;49.316;8.558;2023-03-14T12:28:35;98681.06;;;11.23;100.00
44457;BME280;30159;49.316;8.558;2023-03-14T12:31:38;98691.34;;;11.30;100.00
44457;BME280;30159;49.316;8.558;2023-03-14T12:34:30;98710.91;;;11.27;100.00
44457;BME280;30159;49.316;8.558;2023-03-14T12:37:04;98722.25;;;11.11;100.00
44457;BME280;30159;49.316;8.558;2023-03-14T12:39:39;98746.91;;;10.92;100.00
44457;BME280;30159;49.316;8.558;2023-03-14T12:42:11;98759.63;;;10.74;100.00
44457;BME280;30159;49.316;8.558;2023-03-14T12:44:47;98765.38;;;10.64;100.00
44457;BME280;30159;49.316;8.558;2023-03-14T12:47:49;98770.47;;;10.48;100.00
44457;BME280;30159;49.316;8.558;2023-03-14T12:50:25;98787.59;;;10.26;100.00
44457;BME280;30159;49.316;8.558;2023-03-14T12:55:45;98824.69;;;10.29;98.93
44457;BME280;30159;49.316;8.558;2023-03-14T12:58:17;98808.84;;;10.37;96.75
44457;BME280;30159;49.316;8.558;2023-03-14T13:00:55;98825.66;;;10.51;94.01
44457;BME280;30159;49.316;8.558;2023-03-14T13:03:26;98769.22;;;10.28;90.91
44457;BME280;30159;49.316;8.558;2023-03-14T13:05:55;98826.88;;;10.88;90.00
44457;BME280;30159;49.316;8.558;2023-03-14T13:08:38;98829.03;;;11.21;86.60